AirNav   Textron
 
 241 users online  

CL14 Huntington Memorial Hospital Heliport
Pasadena, California, USA

GOING TO PASADENA?


FAA INFORMATION EFFECTIVE 14 SEPTEMBER 2017

Location

FAA Identifier: CL14
Lat/Long: 34-08-01.1280N / 118-09-13.2570W
34-08.018800N / 118-09.220950W
34.1336467 / -118.1536825
(estimated)
Elevation: 854 ft. / 260 m (estimated)
Variation: 14E (1985)
Time zone: UTC -7 (UTC -8 during Standard Time)
Zip code: 91105

Heliport Operations

Heliport use: Private use, MEDICAL USE.
Activation date: 01/1984
Control tower: no
ARTCC: LOS ANGELES CENTER
FSS: HAWTHORNE FLIGHT SERVICE STATION
Attendance: CONTINUOUS
Wind indicator: lighted
Segmented circle: no
Lights: ACTVT PERIMETER LGTS RY H2 - 123.05.
Beacon: white-green-yellow (heliport)
ACTVT ROTG BCN AND LGTD WINDCONE - 123.05.

Heliport Communications

UNICOM: 123.05
WX AWOS-3PT at EMT (7 nm SE): 118.75 ((626) 444-1107)
WX ASOS at BUR (11 nm W): PHONE 818-841-1384
WX AWOS-3PT at WHP (15 nm NW): 132.1 (818-899-9820)
WX AWOS-3PT at CPM (15 nm S): 127.150 (310-631-4958)
WX ASOS at HHR (16 nm SW): PHONE 310-973-8930
WX ASOS at SMO (16 nm SW): PHONE 310-392-6453
WX ASOS at LAX (17 nm SW): PHONE 310-568-1486
WX ASOS at VNY (17 nm W): PHONE 818-904-9213
WX ASOS at FUL (18 nm SE): PHONE 714-870-1372
WX ASOS at LGB (19 nm S): PHONE 562-424-0572

Nearby radio navigation aids

VOR radial/distance  VOR name  Freq  Var
SMOr049/16.8SANTA MONICA VOR/DME110.8015E
VNYr093/17.6VAN NUYS VOR/DME113.1015E
LAXr034/18.3LOS ANGELES VORTAC113.6015E
POMr265/18.5POMONA VORTAC110.4015E
SLIr332/21.6SEAL BEACH VORTAC115.7015E
PMDr173/30.2PALMDALE VORTAC114.5015E
PDZr278/33.6PARADISE VORTAC112.2015E
ELBr309/34.6EL TORO VOR/DME117.2014E
RALr273/(36.6)RIVERSIDE VOR112.4014E
FIMr095/38.5FILLMORE VORTAC112.5015E
LHSr133/39.1LAKE HUGHES VORTAC108.4015E

 
NDB name  Hdg/Dist  Freq  Var  ID
EL MONTE279/6.735915EEMT . -- -

Heliport Services

Runway Information

Helipad H1

Dimensions: 50 x 50 ft. / 15 x 15 m
Surface: concrete
ROOFTOP HELIPAD OTS AND MARKED WITH YELLOW X. RY H1 CAN BE USED DURG EXTREME EMERGENCY CONDITIONS.
Operational restrictions: INGRESS/EGRESS ROUTES N & S.
Latitude: 34-08.018800N
Longitude: 118-09.220950W
Elevation: 854.0 ft.
Traffic pattern: leftleft

Helipad H2

Dimensions: 40 x 40 ft. / 12 x 12 m
Surface: concrete
Runway edge lights: PERI
Operational restrictions: ROOFTOP HELIPAD.
Traffic pattern: leftleft

Heliport Ownership and Management from official FAA records

Ownership: Privately-owned
Owner: PASADENA MEMORIAL HOSPITAL
100 W. CALIFORNIA BLVD
PASADENA, CA 91109-7013
Phone 626-397-5000
Manager: THOMAS ROMEYN
100 W. CALIFORNIA BLVD.
PASADENA, CA 91105
Phone 626-397-5230

Instrument Procedures

There are no published instrument procedures at CL14.

Some nearby airports with instrument procedures:

KEMT - San Gabriel Valley Airport (7 nm SE)
KBUR - Bob Hope Airport (11 nm W)
KWHP - Whiteman Airport (15 nm NW)
KHHR - Jack Northrop Field/Hawthorne Municipal Airport (16 nm SW)
KSMO - Santa Monica Municipal Airport (16 nm SW)
KLAX - Los Angeles International Airport (17 nm SW)
KVNY - Van Nuys Airport (17 nm W)
KFUL - Fullerton Municipal Airport (18 nm SE)
KPOC - Brackett Field Airport (19 nm E)
KLGB - Long Beach Airport (Daugherty Field) (19 nm S)
 
Loc | Ops | Rwys | IFR | FBO | Links
Com | Nav | Svcs | Stats | Notes

San Bernardino International Airport Authority
 
Area around CL14 (Huntington Memorial Hospital Heliport)
 
Road maps at: MapQuest Bing Google
 
Aerial photo
No photo
 
Sectional chart

 
Airport distance calculator
Flying to Huntington Memorial Hospital Heliport? Find the distance to fly.

From to CL14

Sunrise and sunset
Times for 24-Sep-2017
 Local
(UTC-7)
 Zulu
(UTC)
Morning civil twilight06:1813:18
Sunrise06:4313:43
Sunset18:4601:46
Evening civil twilight19:1102:11

Current date and time
Zulu (UTC)  24-Sep-2017 09:02:50
Local (UTC-7)  24-Sep-2017 02:02:50
 
METAR
KCQT 
6nm SW 
240847Z AUTO 00000KT 10SM CLR 17/13 A2986 RMK AO2 SLP108 T01720128 53004
KEMT 
8nm SE 
240248Z 25005KT 10SM CLR 19/10 A2986
KBUR 
11nm W 
240853Z 00000KT 10SM CLR 16/09 A2987 RMK AO2 SLP102 T01610094 53006
KWHP 
15nm NW 
240253Z 00000KT 10SM SKC 19/11 A2988
KHHR 
16nm SW 
240853Z AUTO VRB03KT 10SM CLR 17/13 A2986 RMK AO2 SLP110 T01720128 53002
KSMO 
16nm SW 
240851Z AUTO 02003KT 10SM CLR 16/13 A2986 RMK AO2 SLP111 T01560133 53003
KLAX 
17nm SW 
240853Z 05004KT 10SM CLR 17/13 A2986 RMK AO2 SLP108 T01670133 53003
KVNY 
17nm W 
240851Z AUTO 00000KT 10SM CLR 15/09 A2987 RMK AO2 SLP107 T01500089 53007
KFUL 
18nm SE 
240853Z AUTO 00000KT 10SM CLR 16/12 A2985 RMK AO2 SLP106 T01560117 50003 $
KLGB 
19nm S 
240853Z 05003KT 10SM CLR 16/13 A2985 RMK AO2 SLP109 T01560128 53002
TAF
KBUR 
11nm W 
240527Z 2406/2506 VRB03KT P6SM SKC FM242000 17008KT P6SM SKC FM250300 VRB03KT P6SM SKC
KSMO 
16nm SW 
240527Z 2406/2506 VRB03KT P6SM SKC FM241300 02007KT P6SM SKC FM242000 24008KT P6SM SKC FM250300 VRB03KT P6SM SKC
KLAX 
17nm SW 
240527Z 2406/2512 24005KT P6SM SKC FM240900 08005KT P6SM SKC FM242000 25012KT P6SM SKC FM250300 24006KT P6SM SKC FM250900 08005KT P6SM SKC
KVNY 
17nm W 
240527Z 2406/2506 VRB03KT P6SM SKC FM241200 01008KT P6SM SKC FM242000 16008KT P6SM SKC FM250100 VRB03KT P6SM SKC FM250500 36010KT P6SM SKC
KLGB 
19nm S 
240527Z 2406/2506 VRB03KT P6SM SKC FM242000 21008KT P6SM SKC FM250000 30008KT P6SM SKC FM250400 VRB03KT P6SM SKC
NOTAMs
Click for the latest NOTAMs
NOTAMs are issued by the DoD/FAA and will open in a separate window not controlled by AirNav.

 

 
 

Would you like to see your business listed on this page?

 If your business provides an interesting product or service to pilots, flight crews, aircraft, or users of the Huntington Memorial Hospital Heliport, you should consider listing it here.  To start the listing process, click on the button below
 
Add a business
 

Other Pages about Huntington Memorial Hospital Heliport

Update a link
 
Copyright © AirNav, LLC. All rights reserved. Privacy Policy  Contact